createdAt,value
2019-04-21T00:01:54.567Z,20.68
2019-04-21T00:04:33.260Z,20.35
2019-04-21T00:07:13.181Z,21.90
2019-04-21T00:09:59.740Z,24.72
2019-04-21T00:12:14.013Z,23.65
2019-04-21T00:14:39.702Z,23.40
2019-04-21T00:17:05.095Z,21.55
2019-04-21T00:19:37.098Z,22.93
2019-04-21T00:22:14.888Z,26.42
2019-04-21T00:24:51.966Z,21.42
2019-04-21T00:27:21.387Z,24.07
2019-04-21T00:29:56.677Z,21.62
2019-04-21T00:32:17.862Z,22.37
2019-04-21T00:34:36.358Z,20.95
2019-04-21T00:37:15.794Z,27.17
2019-04-21T00:40:09.460Z,22.30
2019-04-21T00:42:26.914Z,22.27
2019-04-21T00:44:52.019Z,22.60
2019-04-21T00:47:31.726Z,25.48
2019-04-21T00:50:01.553Z,24.85
2019-04-21T00:53:24.590Z,23.67
2019-04-21T00:57:54.230Z,24.87
2019-04-21T01:00:20.326Z,22.27
2019-04-21T01:02:52.529Z,26.00
2019-04-21T01:05:38.540Z,23.47
2019-04-21T01:07:48.528Z,28.10
2019-04-21T01:10:11.896Z,26.65
2019-04-21T01:12:48.666Z,22.35
2019-04-21T01:15:24.819Z,23.98
2019-04-21T01:17:53.202Z,24.12
2019-04-21T01:20:12.968Z,24.65
2019-04-21T01:22:29.928Z,23.30
2019-04-21T01:25:09.040Z,26.55
2019-04-21T01:27:52.139Z,27.00
2019-04-21T01:30:26.546Z,23.42
2019-04-21T01:32:53.290Z,24.47
2019-04-21T01:35:25.441Z,25.35
2019-04-21T01:37:57.784Z,24.55
2019-04-21T01:40:28.982Z,25.17
2019-04-21T01:42:56.761Z,23.50
2019-04-21T01:45:26.589Z,26.42
2019-04-21T01:47:58.994Z,32.42
2019-04-21T01:50:46.686Z,27.45
2019-04-21T01:53:39.540Z,26.33
2019-04-21T01:56:24.463Z,25.77
2019-04-21T01:58:44.337Z,22.67
2019-04-21T02:01:24.653Z,24.18
2019-04-21T02:03:55.718Z,25.05
2019-04-21T02:06:28.373Z,32.00
2019-04-21T02:08:57.724Z,27.20
2019-04-21T02:11:30.020Z,22.70
2019-04-21T02:14:03.901Z,23.77
2019-04-21T02:16:28.941Z,27.52
2019-04-21T02:18:54.518Z,27.13
2019-04-21T02:21:21.495Z,24.30
2019-04-21T02:24:04.991Z,27.48
2019-04-21T02:26:33.671Z,25.95
2019-04-21T02:29:08.453Z,26.65
2019-04-21T02:31:45.345Z,26.25
2019-04-21T02:34:29.589Z,27.75
2019-04-21T02:41:52.123Z,32.70
2019-04-21T02:49:22.800Z,29.40
2019-04-21T02:51:43.817Z,30.52
2019-04-21T02:59:33.411Z,27.13
2019-04-21T03:02:06.195Z,30.27
2019-04-21T03:04:47.565Z,26.93
2019-04-21T03:09:57.870Z,26.35
2019-04-21T03:12:22.178Z,26.00
2019-04-21T03:15:16.002Z,29.25
2019-04-21T03:17:35.849Z,28.62
2019-04-21T03:22:33.662Z,28.75
2019-04-21T03:27:40.149Z,28.62
2019-04-21T03:30:19.985Z,35.88
2019-04-21T03:35:44.054Z,34.35
2019-04-21T03:37:39.782Z,29.60
2019-04-21T03:40:06.888Z,29.00
2019-04-21T03:42:57.101Z,29.82
2019-04-21T03:45:12.689Z,27.67
2019-04-21T03:50:11.414Z,33.45
2019-04-21T04:06:03.724Z,33.60
2019-04-21T04:08:52.517Z,31.87
2019-04-21T04:11:21.130Z,31.70
2019-04-21T04:14:04.214Z,36.55
2019-04-21T04:21:30.872Z,31.30
2019-04-21T04:33:55.524Z,35.35
2019-04-21T04:36:36.025Z,34.98
2019-04-21T04:39:28.075Z,34.55
2019-04-21T04:42:03.553Z,32.50
2019-04-21T04:44:26.480Z,31.80
2019-04-21T04:49:25.263Z,42.08
2019-04-21T04:54:21.783Z,35.45
2019-04-21T04:56:47.810Z,38.17
2019-04-21T05:01:57.628Z,35.17
2019-04-21T05:04:20.319Z,31.33
2019-04-21T05:09:37.061Z,31.30
2019-04-21T05:14:13.415Z,29.37
2019-04-21T05:16:55.481Z,26.05
2019-04-21T05:21:43.926Z,25.62
2019-04-21T05:24:12.387Z,26.07
2019-04-21T05:26:46.267Z,26.77
2019-04-21T05:29:11.115Z,26.40
2019-04-21T05:32:07.610Z,25.80
2019-04-21T05:34:27.164Z,24.60
2019-04-21T05:36:59.274Z,22.02
2019-04-21T05:39:41.975Z,28.17
2019-04-21T05:42:07.735Z,23.38
2019-04-21T05:45:04.303Z,22.95
2019-04-21T05:47:26.519Z,23.73
2019-04-21T05:49:59.073Z,21.52
2019-04-21T05:52:25.156Z,19.87
2019-04-21T05:55:00.862Z,21.33
2019-04-21T05:57:33.451Z,23.22
2019-04-21T06:00:08.895Z,24.27
2019-04-21T06:02:39.979Z,20.65
2019-04-21T06:05:24.502Z,21.52
2019-04-21T06:07:33.437Z,23.62
2019-04-21T06:10:04.483Z,19.37
2019-04-21T06:12:46.642Z,20.35
2019-04-21T06:15:12.178Z,19.35
2019-04-21T06:17:43.936Z,18.62
2019-04-21T06:20:19.373Z,18.62
2019-04-21T06:22:35.999Z,17.75
2019-04-21T06:25:43.150Z,20.37
2019-04-21T06:27:49.039Z,19.73
2019-04-21T06:30:13.535Z,19.02
2019-04-21T06:35:52.914Z,17.52
2019-04-21T06:38:03.640Z,17.35
2019-04-21T06:40:43.881Z,18.45
2019-04-21T06:43:18.041Z,19.42
2019-04-21T06:45:41.320Z,16.55
2019-04-21T06:48:14.609Z,17.42
2019-04-21T06:51:04.809Z,19.20
2019-04-21T06:53:42.525Z,17.00
2019-04-21T06:56:03.346Z,19.35
2019-04-21T06:58:26.336Z,19.95
2019-04-21T07:00:57.676Z,15.93
2019-04-21T07:03:48.653Z,17.12
2019-04-21T07:06:06.194Z,15.85
2019-04-21T07:08:34.543Z,18.45
2019-04-21T07:11:03.977Z,17.55
2019-04-21T07:13:34.543Z,16.93
2019-04-21T07:16:07.256Z,17.37
2019-04-21T07:18:37.017Z,17.67
2019-04-21T07:21:02.739Z,15.85
2019-04-21T07:23:41.932Z,16.85
2019-04-21T07:26:02.733Z,20.23
2019-04-21T07:28:41.285Z,15.63
2019-04-21T07:31:13.011Z,15.23
2019-04-21T07:36:06.474Z,16.60
2019-04-21T07:38:33.188Z,14.18
2019-04-21T07:40:59.535Z,18.70
2019-04-21T07:43:31.559Z,19.87
2019-04-21T07:45:58.160Z,20.82
2019-04-21T07:48:37.608Z,22.62
2019-04-21T07:51:22.854Z,23.02
2019-04-21T07:53:49.869Z,19.25
2019-04-21T07:55:59.365Z,21.48
2019-04-21T07:58:55.076Z,20.77
2019-04-21T08:01:18.019Z,19.40
2019-04-21T08:03:48.610Z,21.10
2019-04-21T08:06:25.262Z,20.20
2019-04-21T08:08:46.610Z,21.48
2019-04-21T08:11:14.888Z,17.25
2019-04-21T08:13:48.711Z,19.57
2019-04-21T08:16:20.049Z,19.15
2019-04-21T08:18:45.532Z,18.27
2019-04-21T08:21:20.646Z,19.32
2019-04-21T08:23:46.768Z,19.25
2019-04-21T08:26:24.296Z,17.73
2019-04-21T08:28:52.094Z,16.80
2019-04-21T08:31:23.712Z,19.10
2019-04-21T08:33:55.764Z,21.50
2019-04-21T08:36:32.660Z,21.48
2019-04-21T08:38:53.590Z,20.37
2019-04-21T08:41:24.293Z,21.77
2019-04-21T08:43:51.313Z,23.47
2019-04-21T08:46:24.111Z,22.80
2019-04-21T08:48:55.339Z,22.25
2019-04-21T08:51:39.515Z,22.60
2019-04-21T08:56:29.159Z,22.75
2019-04-21T08:59:03.799Z,19.17
2019-04-21T09:01:41.412Z,20.55
2019-04-21T09:06:54.142Z,20.90
2019-04-21T09:09:10.877Z,23.52
2019-04-21T09:11:36.334Z,22.37
2019-04-21T09:14:07.075Z,28.42
2019-04-21T09:16:35.599Z,20.10
2019-04-21T09:19:04.495Z,19.35
2019-04-21T09:21:42.322Z,22.75
2019-04-21T09:24:14.728Z,22.37
2019-04-21T09:26:34.017Z,21.77
2019-04-21T09:29:00.651Z,23.85
2019-04-21T09:31:26.015Z,22.50
2019-04-21T09:33:54.000Z,22.62
2019-04-21T09:36:23.347Z,23.25
2019-04-21T09:39:01.191Z,22.50
2019-04-21T09:41:25.790Z,22.75
2019-04-21T09:43:55.799Z,19.80
2019-04-21T09:46:23.669Z,24.30
2019-04-21T09:49:00.352Z,21.12
2019-04-21T09:51:23.797Z,20.02
2019-04-21T09:53:58.737Z,20.35
2019-04-21T09:56:31.167Z,19.15
2019-04-21T09:59:07.260Z,17.82
2019-04-21T10:01:29.873Z,18.17
2019-04-21T10:03:59.695Z,19.67
2019-04-21T10:06:26.068Z,18.95
2019-04-21T10:08:58.621Z,18.45
2019-04-21T10:11:26.879Z,19.12
2019-04-21T10:13:55.778Z,20.12
2019-04-21T10:16:26.083Z,24.12
2019-04-21T10:18:54.856Z,23.30
2019-04-21T10:21:25.729Z,21.27
2019-04-21T10:23:54.268Z,21.45
2019-04-21T10:26:22.762Z,23.75
2019-04-21T10:28:52.939Z,23.90
2019-04-21T10:31:22.766Z,18.73
2019-04-21T10:33:52.516Z,21.73
2019-04-21T10:36:21.216Z,18.35
2019-04-21T10:38:52.245Z,16.60
2019-04-21T10:41:21.382Z,19.50
2019-04-21T10:43:51.262Z,19.77
2019-04-21T10:46:19.955Z,19.52
2019-04-21T10:48:48.702Z,17.17
2019-04-21T10:51:17.495Z,16.15
2019-04-21T10:53:52.227Z,17.20
2019-04-21T10:56:27.418Z,18.57
2019-04-21T10:58:50.045Z,18.10
2019-04-21T11:01:21.004Z,20.72
2019-04-21T11:04:02.584Z,20.17
2019-04-21T11:06:32.483Z,18.02
2019-04-21T11:09:04.835Z,16.85
2019-04-21T11:11:34.166Z,17.37
2019-04-21T11:14:02.766Z,17.23
2019-04-21T11:16:33.132Z,22.30
2019-04-21T11:19:04.054Z,17.73
2019-04-21T11:21:32.637Z,18.35
2019-04-21T11:24:01.918Z,16.05
2019-04-21T11:26:31.693Z,19.37
2019-04-21T11:29:01.078Z,17.95
2019-04-21T11:31:30.021Z,19.37
2019-04-21T11:34:00.901Z,19.60
2019-04-21T11:36:31.236Z,17.23
2019-04-21T11:39:16.372Z,15.58
2019-04-21T11:41:32.343Z,17.12
2019-04-21T11:44:01.456Z,18.32
2019-04-21T11:46:30.770Z,18.05
2019-04-21T11:49:00.052Z,16.30
2019-04-21T11:51:28.979Z,17.87
2019-04-21T11:53:59.036Z,18.30
2019-04-21T11:56:27.825Z,15.63
2019-04-21T11:58:57.817Z,18.42
2019-04-21T12:01:27.663Z,16.93
2019-04-21T12:03:57.828Z,15.68
2019-04-21T12:06:32.212Z,18.77
2019-04-21T12:09:01.076Z,20.57
2019-04-21T12:11:29.308Z,16.55
2019-04-21T12:13:58.415Z,16.23
2019-04-21T12:16:27.193Z,16.73
2019-04-21T12:18:56.770Z,18.15
2019-04-21T12:21:28.346Z,17.98
2019-04-21T12:23:56.605Z,16.27
2019-04-21T12:26:26.370Z,19.35
2019-04-21T12:28:55.839Z,17.98
2019-04-21T12:31:33.757Z,19.95
2019-04-21T12:34:03.962Z,17.75
2019-04-21T12:36:33.721Z,19.82
2019-04-21T12:39:06.946Z,18.17
2019-04-21T12:41:34.384Z,15.95
2019-04-21T12:44:04.505Z,14.98
2019-04-21T12:46:33.962Z,17.35
2019-04-21T12:49:04.462Z,16.62
2019-04-21T12:51:33.748Z,17.62
2019-04-21T12:54:03.766Z,16.70
2019-04-21T12:56:33.669Z,18.17
2019-04-21T12:59:02.180Z,17.55
2019-04-21T13:01:30.975Z,16.65
2019-04-21T13:03:59.759Z,17.90
2019-04-21T13:06:29.712Z,15.28
2019-04-21T13:09:05.135Z,15.60
2019-04-21T13:11:28.923Z,13.90
2019-04-21T13:13:57.869Z,16.23
2019-04-21T13:16:27.462Z,15.03
2019-04-21T13:18:57.489Z,19.10
2019-04-21T13:21:26.244Z,16.97
2019-04-21T13:23:55.020Z,16.60
2019-04-21T13:26:34.450Z,16.50
2019-04-21T13:28:54.304Z,13.53
2019-04-21T13:31:24.480Z,20.05
2019-04-21T13:33:53.371Z,19.75
2019-04-21T13:36:23.343Z,18.32
2019-04-21T13:39:37.986Z,13.58
2019-04-21T13:41:51.761Z,18.35
2019-04-21T13:44:15.769Z,16.25
2019-04-21T13:46:46.753Z,17.17
2019-04-21T13:49:17.334Z,16.12
2019-04-21T13:51:45.967Z,16.75
2019-04-21T13:54:15.608Z,15.88
2019-04-21T13:56:45.002Z,17.48
2019-04-21T13:59:14.025Z,17.23
2019-04-21T14:01:43.702Z,16.40
2019-04-21T14:04:13.564Z,15.50
2019-04-21T14:06:42.540Z,14.63
2019-04-21T14:09:13.590Z,13.75
2019-04-21T14:11:43.377Z,15.63
2019-04-21T14:14:12.491Z,17.82
2019-04-21T14:16:42.363Z,18.92
2019-04-21T14:19:11.343Z,17.70
2019-04-21T14:21:41.183Z,20.17
2019-04-21T14:24:10.846Z,16.30
2019-04-21T14:26:40.458Z,19.40
2019-04-21T14:29:09.872Z,15.05
2019-04-21T14:31:40.248Z,17.15
2019-04-21T14:34:10.077Z,17.55
2019-04-21T14:36:39.010Z,20.62
2019-04-21T14:39:10.563Z,16.70
2019-04-21T14:41:40.334Z,16.45
2019-04-21T14:44:09.218Z,15.03
2019-04-21T14:46:39.571Z,15.80
2019-04-21T14:49:13.051Z,15.45
2019-04-21T14:51:49.605Z,19.45
2019-04-21T14:54:22.600Z,16.35
2019-04-21T14:56:51.575Z,16.85
2019-04-21T14:59:21.247Z,17.80
2019-04-21T15:01:51.690Z,18.62
2019-04-21T15:04:21.156Z,16.40
2019-04-21T15:06:51.716Z,16.17
2019-04-21T15:09:20.979Z,14.70
2019-04-21T15:11:49.936Z,15.55
2019-04-21T15:14:19.993Z,20.20
2019-04-21T15:16:49.046Z,16.80
2019-04-21T15:19:18.092Z,15.40
2019-04-21T15:21:47.984Z,18.30
2019-04-21T15:24:18.336Z,20.68
2019-04-21T15:26:48.341Z,14.13
2019-04-21T15:29:17.555Z,16.17
2019-04-21T15:31:46.656Z,15.00
2019-04-21T15:34:15.555Z,14.23
2019-04-21T15:36:44.343Z,16.70
2019-04-21T15:39:13.939Z,18.57
2019-04-21T15:41:42.797Z,16.85
2019-04-21T15:44:12.483Z,17.62
2019-04-21T15:46:41.909Z,17.75
2019-04-21T15:49:11.295Z,20.57
2019-04-21T15:51:40.178Z,15.83
2019-04-21T15:54:08.874Z,15.30
2019-04-21T15:56:40.436Z,15.30
2019-04-21T15:59:10.983Z,14.18
2019-04-21T16:01:48.435Z,16.45
2019-04-21T16:04:17.078Z,14.35
2019-04-21T16:06:47.793Z,19.85
2019-04-21T16:09:21.298Z,20.62
2019-04-21T16:11:46.895Z,14.65
2019-04-21T16:14:16.678Z,12.93
2019-04-21T16:16:45.447Z,14.47
2019-04-21T16:19:14.404Z,13.65
2019-04-21T16:21:46.290Z,15.68
2019-04-21T16:24:14.286Z,15.72
2019-04-21T16:26:44.593Z,18.60
2019-04-21T16:29:13.287Z,18.75
2019-04-21T16:31:42.653Z,15.15
2019-04-21T16:34:11.251Z,13.65
2019-04-21T16:36:39.735Z,19.12
2019-04-21T16:39:09.419Z,11.73
2019-04-21T16:41:38.474Z,18.40
2019-04-21T16:44:07.238Z,13.83
2019-04-21T16:46:36.244Z,13.62
2019-04-21T16:49:04.841Z,15.48
2019-04-21T16:51:33.925Z,16.42
2019-04-21T16:54:04.455Z,16.95
2019-04-21T16:56:35.859Z,14.63
2019-04-21T16:59:16.725Z,13.10
2019-04-21T17:01:46.780Z,13.58
2019-04-21T17:04:16.096Z,17.20
2019-04-21T17:06:47.138Z,13.98
2019-04-21T17:09:16.743Z,15.68
2019-04-21T17:11:46.950Z,14.73
2019-04-21T17:14:33.156Z,15.15
2019-04-21T17:17:08.718Z,13.75
2019-04-21T17:19:26.953Z,15.13
2019-04-21T17:21:46.167Z,15.15
2019-04-21T17:24:16.632Z,19.95
2019-04-21T17:26:46.470Z,18.90
2019-04-21T17:29:16.843Z,15.25
2019-04-21T17:31:45.765Z,18.23
2019-04-21T17:34:19.508Z,17.12
2019-04-21T17:36:45.396Z,17.98
2019-04-21T17:39:14.079Z,14.13
2019-04-21T17:42:04.103Z,13.65
2019-04-21T17:44:13.124Z,14.60
2019-04-21T17:46:51.098Z,13.95
2019-04-21T17:49:12.781Z,14.47
2019-04-21T17:51:53.677Z,14.23
2019-04-21T17:54:30.202Z,13.50
2019-04-21T17:57:15.307Z,14.55
2019-04-21T17:59:50.638Z,13.00
2019-04-21T18:02:09.434Z,16.95
2019-04-21T18:04:41.505Z,13.25
2019-04-21T18:07:26.278Z,15.88
2019-04-21T18:10:00.469Z,12.73
2019-04-21T18:12:24.970Z,12.90
2019-04-21T18:14:51.579Z,14.13
2019-04-21T18:17:10.883Z,12.75
2019-04-21T18:19:43.658Z,13.13
2019-04-21T18:22:34.516Z,14.20
2019-04-21T18:25:07.049Z,10.53
2019-04-21T18:27:32.561Z,10.85
2019-04-21T18:30:04.421Z,11.03
2019-04-21T18:32:38.487Z,14.43
2019-04-21T18:35:20.567Z,14.73
2019-04-21T18:38:04.525Z,10.45
2019-04-21T18:40:28.066Z,12.03
2019-04-21T18:43:38.701Z,11.70
2019-04-21T18:46:09.390Z,10.28
2019-04-21T18:48:25.728Z,13.98
2019-04-21T18:50:50.710Z,17.10
2019-04-21T18:53:32.397Z,17.73
2019-04-21T18:55:48.211Z,11.65
2019-04-21T18:58:15.843Z,15.10
2019-04-21T19:00:45.825Z,16.48
2019-04-21T19:03:20.853Z,11.90
2019-04-21T19:05:52.093Z,10.40
2019-04-21T19:08:32.843Z,12.20
2019-04-21T19:11:10.041Z,16.93
2019-04-21T19:13:56.409Z,11.85
2019-04-21T19:16:28.354Z,12.47
2019-04-21T19:18:45.770Z,11.20
2019-04-21T19:21:05.465Z,13.90
2019-04-21T19:23:45.591Z,14.03
2019-04-21T19:26:21.897Z,10.38
2019-04-21T19:28:47.537Z,13.55
2019-04-21T19:31:20.531Z,13.30
2019-04-21T19:33:33.018Z,11.45
2019-04-21T19:35:53.105Z,9.63
2019-04-21T19:38:31.655Z,14.75
2019-04-21T19:41:10.409Z,11.78
2019-04-21T19:43:49.274Z,13.28
2019-04-21T19:46:14.380Z,12.00
2019-04-21T19:48:58.840Z,11.70
2019-04-21T19:51:17.181Z,9.03
2019-04-21T19:53:42.116Z,9.35
2019-04-21T19:55:58.320Z,11.75
2019-04-21T19:58:33.072Z,9.68
2019-04-21T20:00:57.585Z,13.62
2019-04-21T20:03:26.413Z,12.28
2019-04-21T20:06:05.918Z,9.83
2019-04-21T20:08:42.175Z,10.48
2019-04-21T20:11:15.543Z,11.50
2019-04-21T20:14:18.358Z,15.75
2019-04-21T20:16:15.062Z,13.10
2019-04-21T20:18:34.805Z,11.68
2019-04-21T20:20:56.739Z,9.50
2019-04-21T20:23:31.289Z,8.90
2019-04-21T20:26:00.754Z,13.15
2019-04-21T20:28:38.472Z,14.40
2019-04-21T20:31:14.796Z,9.50
2019-04-21T20:33:59.248Z,12.80
2019-04-21T20:36:24.142Z,13.30
2019-04-21T20:38:42.112Z,10.63
2019-04-21T20:41:18.019Z,10.93
2019-04-21T20:43:54.693Z,12.65
2019-04-21T20:46:15.632Z,12.45
2019-04-21T20:48:46.243Z,13.88
2019-04-21T20:51:21.873Z,11.90
2019-04-21T20:53:50.600Z,10.85
2019-04-21T20:56:13.072Z,10.65
2019-04-21T20:58:53.699Z,15.23
2019-04-21T21:03:55.631Z,13.20
2019-04-21T21:06:26.250Z,12.95
2019-04-21T21:09:01.627Z,12.55
2019-04-21T21:11:34.207Z,12.50
2019-04-21T21:13:59.169Z,11.43
2019-04-21T21:16:41.190Z,12.00
2019-04-21T21:21:32.456Z,10.93
2019-04-21T21:24:03.469Z,13.78
2019-04-21T21:26:39.222Z,12.35
2019-04-21T21:28:58.860Z,12.05
2019-04-21T21:31:38.703Z,9.83
2019-04-21T21:34:09.524Z,10.58
2019-04-21T21:36:36.612Z,16.20
2019-04-21T21:39:05.956Z,13.48
2019-04-21T21:41:27.723Z,12.18
2019-04-21T21:44:00.533Z,17.52
2019-04-21T21:46:40.386Z,11.80
2019-04-21T21:49:06.124Z,14.90
2019-04-21T21:51:39.791Z,13.32
2019-04-21T21:53:59.012Z,13.50
2019-04-21T21:56:40.854Z,15.43
2019-04-21T21:59:16.016Z,14.13
2019-04-21T22:01:45.505Z,16.60
2019-04-21T22:04:18.360Z,12.78
2019-04-21T22:06:55.344Z,10.70
2019-04-21T22:09:18.622Z,15.53
2019-04-21T22:11:49.523Z,12.13
2019-04-21T22:14:26.900Z,13.68
2019-04-21T22:17:07.624Z,14.75
2019-04-21T22:19:37.039Z,14.38
2019-04-21T22:22:11.727Z,17.55
2019-04-21T22:24:39.958Z,12.63
2019-04-21T22:26:52.651Z,14.43
2019-04-21T22:29:21.460Z,14.68
2019-04-21T22:31:52.742Z,15.98
2019-04-21T22:34:27.725Z,13.95
2019-04-21T22:37:01.495Z,13.88
2019-04-21T22:39:41.875Z,14.30
2019-04-21T22:42:01.722Z,13.13
2019-04-21T22:44:24.631Z,14.68
2019-04-21T22:47:08.523Z,15.50
2019-04-21T22:49:30.775Z,12.68
2019-04-21T22:52:03.965Z,12.78
2019-04-21T22:54:35.907Z,15.25
2019-04-21T22:57:12.880Z,13.65
2019-04-21T22:59:37.284Z,15.43
2019-04-21T23:02:15.257Z,14.28
2019-04-21T23:04:45.065Z,14.63
2019-04-21T23:07:15.837Z,14.13
2019-04-21T23:09:43.163Z,16.00
2019-04-21T23:12:19.292Z,18.02
2019-04-21T23:14:53.445Z,15.38
2019-04-21T23:17:41.589Z,15.83
2019-04-21T23:20:08.868Z,12.85
2019-04-21T23:22:49.295Z,14.05
2019-04-21T23:25:07.541Z,14.45
2019-04-21T23:27:40.437Z,19.70
2019-04-21T23:30:20.178Z,14.37
2019-04-21T23:32:33.895Z,16.32
2019-04-21T23:34:55.431Z,17.10
2019-04-21T23:37:44.929Z,16.62
2019-04-21T23:40:13.125Z,17.42
2019-04-21T23:42:41.872Z,16.95
2019-04-21T23:45:09.191Z,18.52
2019-04-21T23:48:01.437Z,17.70
2019-04-21T23:50:35.209Z,17.60
2019-04-21T23:52:53.333Z,15.95
2019-04-21T23:55:23.119Z,16.50
2019-04-21T23:58:07.167Z,19.27
